首页
METAR-TAF:

METAR-TAF

机场 :

玛丽埃塔, 喬治亞, 美国

纬度: 33-55N, 经度: 084-31W, 海拔: 326米

当前天气观测

该预报发布于14分钟前的19:56 UTC
风速7节,风向西南
温度 31°C
湿度 40%
气压 1018 hPa
能見度: 16.1公里
散云层高于6000英尺
多云层高于25000英尺

METAR: KMGE 181956Z 22007KT 10SM SCT060 BKN250 31/16 A3006 RMK AO2A SLP170 T03100162 $

时间: 16:10 (20:10 UTC)

预报

该预报发布于7小时和10分钟前的13:00 UTC
预报有效从18日的 13点(UTC)到 19日的 19点(UTC)
风速6节,风向
能见度10公里或以上
少量云层高于7000英尺
散云层高于25000英尺
成为
从 18日的 17点(UTC)到 18日的 18点(UTC)
风速12节,风向
能见度10公里或以上
散云层高于7000英尺
多云层高于25000英尺
成为
从 18日的 23点(UTC)到 18日的 24点(UTC)
风速6节,风向多变
能见度10公里或以上
散云层高于7000英尺
多云层高于25000英尺
成为
从 19日的 14点(UTC)到 19日的 15点(UTC)
风速10节,风向南转西南,有时为15节阵风
能见度10公里或以上
多云层高于6500英尺
多云层高于25000英尺
成为
从 19日的 17点(UTC)到 19日的 18点(UTC)
风速12节,风向南转西南,有时为20节阵风
能见度10公里或以上
多云层高于6500英尺
阴天层高于25000英尺
附近有阵雨

TAF: KMGE 181300Z 1813/1919 10006KT 9999 FEW070 SCT250 QNH3007INS BECMG 1817/1818 19012KT 9999 SCT070 BKN250 QNH2999INS BECMG 1823/1824 VRB06KT 9999 SCT070 BKN250 QNH3000INS BECMG 1914/1915 21010G15KT 9999 BKN065 BKN250 QNH3004INS BECMG 1917/1918 21012G20KT 9999 VCSH BKN065 OVC250 QNH3003INS TX33/1821Z TN20/1911Z

超过4000个机场的气象观测和天气预报(METAR&TAF报告)。

可查询的气象台以黄色和红色小点在地图上表示。

将鼠标移到小点上方,可查看气象台名称。

然后点击查看天气观测和预报。

如需切换地图:点击带黑十字的绿色按钮放大地图;点击带横线的绿色按钮缩小地图;或者点击绿色箭头查看邻近地区的地图。


METAR-TAF: